createdAt,value
2023-03-06T00:00:57.832Z,56.73
2023-03-06T00:03:59.898Z,56.95
2023-03-06T00:07:02.015Z,57.03
2023-03-06T00:10:06.791Z,56.88
2023-03-06T00:13:12.226Z,56.58
2023-03-06T00:16:14.360Z,57.43
2023-03-06T00:19:16.271Z,57.22
2023-03-06T00:22:18.931Z,57.47
2023-03-06T00:25:22.778Z,57.58
2023-03-06T00:28:25.343Z,57.39
2023-03-06T00:31:27.541Z,56.74
2023-03-06T00:34:29.614Z,57.08
2023-03-06T00:37:31.597Z,57.08
2023-03-06T00:40:33.967Z,57.77
2023-03-06T00:43:35.901Z,57.69
2023-03-06T00:46:38.159Z,57.78
2023-03-06T00:49:40.336Z,56.96
2023-03-06T00:52:43.530Z,57.03
2023-03-06T00:55:46.063Z,57.70
2023-03-06T00:58:49.244Z,57.10
2023-03-06T01:01:51.390Z,57.48
2023-03-06T01:04:53.524Z,56.58
2023-03-06T01:07:55.723Z,56.90
2023-03-06T01:10:57.742Z,57.04
2023-03-06T01:13:59.754Z,56.75
2023-03-06T01:17:01.674Z,56.59
2023-03-06T01:20:05.110Z,57.04
2023-03-06T01:23:07.292Z,57.13
2023-03-06T01:26:10.038Z,57.47
2023-03-06T01:29:12.205Z,56.80
2023-03-06T01:32:14.295Z,57.50
2023-03-06T01:35:16.432Z,56.95
2023-03-06T01:38:18.783Z,57.35
2023-03-06T01:41:21.649Z,56.75
2023-03-06T01:44:23.806Z,56.94
2023-03-06T01:47:26.147Z,56.87
2023-03-06T01:50:28.845Z,56.93
2023-03-06T01:53:31.690Z,57.30
2023-03-06T01:56:33.938Z,57.64
2023-03-06T01:59:38.887Z,57.49
2023-03-06T02:02:44.070Z,56.83
2023-03-06T02:05:47.699Z,56.93
2023-03-06T02:08:52.401Z,56.85
2023-03-06T02:11:54.431Z,56.34
2023-03-06T02:14:56.985Z,56.45
2023-03-06T02:18:00.473Z,56.24
2023-03-06T02:21:06.207Z,56.26
2023-03-06T02:24:28.217Z,55.92
2023-03-06T02:27:31.199Z,56.16
2023-03-06T02:30:35.150Z,55.94
2023-03-06T02:33:37.062Z,55.90
2023-03-06T02:36:44.432Z,55.79
2023-03-06T02:39:54.958Z,55.69
2023-03-06T02:42:58.549Z,55.84
2023-03-06T02:46:01.152Z,55.46
2023-03-06T02:49:03.515Z,56.09
2023-03-06T02:52:06.980Z,56.25
2023-03-06T02:55:09.323Z,55.55
2023-03-06T02:58:11.255Z,55.46
2023-03-06T03:01:17.371Z,55.34
2023-03-06T03:04:19.693Z,55.09
2023-03-06T03:07:21.905Z,54.60
2023-03-06T03:10:24.272Z,54.50
2023-03-06T03:13:26.770Z,54.81
2023-03-06T03:16:28.662Z,54.43
2023-03-06T03:19:30.760Z,55.06
2023-03-06T03:22:33.397Z,54.83
2023-03-06T03:25:37.482Z,54.74
2023-03-06T03:28:39.590Z,54.76
2023-03-06T03:31:41.916Z,55.09
2023-03-06T03:34:46.550Z,54.95
2023-03-06T03:37:48.570Z,55.07
2023-03-06T03:40:52.165Z,54.96
2023-03-06T03:43:54.319Z,55.39
2023-03-06T03:46:56.208Z,55.21
2023-03-06T03:49:58.056Z,55.00
2023-03-06T03:53:04.563Z,54.80
2023-03-06T03:56:08.924Z,54.93
2023-03-06T03:59:11.232Z,55.08
2023-03-06T04:02:14.605Z,54.66
2023-03-06T04:05:16.917Z,55.14
2023-03-06T04:08:21.214Z,55.09
2023-03-06T04:11:23.629Z,54.83
2023-03-06T04:14:28.605Z,54.48
2023-03-06T04:17:30.801Z,55.04
2023-03-06T04:20:32.960Z,54.61
2023-03-06T04:23:35.165Z,54.19
2023-03-06T04:26:37.624Z,55.43
2023-03-06T04:29:39.875Z,55.32
2023-03-06T04:32:41.883Z,55.18
2023-03-06T04:35:44.032Z,54.71
2023-03-06T04:38:46.093Z,54.06
2023-03-06T04:41:48.364Z,54.00
2023-03-06T04:44:50.526Z,54.38
2023-03-06T04:47:52.659Z,54.85
2023-03-06T04:50:55.739Z,55.57
2023-03-06T04:53:58.792Z,55.91
2023-03-06T04:57:01.113Z,55.82
2023-03-06T05:00:06.692Z,56.61
2023-03-06T05:03:09.145Z,56.69
2023-03-06T05:06:11.149Z,56.25
2023-03-06T05:09:13.148Z,57.43
2023-03-06T05:12:15.375Z,56.98
2023-03-06T05:15:18.092Z,57.27
2023-03-06T05:18:21.625Z,57.42
2023-03-06T05:21:23.697Z,57.20
2023-03-06T05:24:26.119Z,56.86
2023-03-06T05:27:28.979Z,57.81
2023-03-06T05:30:30.931Z,57.72
2023-03-06T05:33:35.366Z,57.74
2023-03-06T05:36:37.736Z,58.26
2023-03-06T05:39:39.754Z,58.21
2023-03-06T05:42:42.157Z,57.75
2023-03-06T05:45:44.689Z,57.78
2023-03-06T05:48:47.238Z,57.78
2023-03-06T05:51:49.822Z,59.30
2023-03-06T05:54:53.966Z,58.69
2023-03-06T05:57:56.282Z,58.59
2023-03-06T06:00:58.561Z,59.29
2023-03-06T06:04:02.268Z,58.76
2023-03-06T06:07:06.070Z,59.11
2023-03-06T06:10:08.972Z,59.36
2023-03-06T06:13:11.036Z,59.04
2023-03-06T06:16:19.335Z,58.31
2023-03-06T06:19:23.231Z,58.84
2023-03-06T06:22:25.348Z,58.75
2023-03-06T06:25:29.227Z,57.77
2023-03-06T06:28:32.374Z,58.06
2023-03-06T06:31:37.680Z,57.92
2023-03-06T06:34:39.688Z,58.64
2023-03-06T06:37:41.879Z,58.59
2023-03-06T06:40:44.787Z,57.88
2023-03-06T06:43:51.288Z,57.40
2023-03-06T06:50:18.349Z,58.45
2023-03-06T06:53:20.878Z,58.31
2023-03-06T06:56:23.565Z,57.69
2023-03-06T07:03:40.040Z,58.48
2023-03-06T07:11:01.659Z,59.83
2023-03-06T07:18:51.459Z,59.23
2023-03-06T07:21:59.404Z,58.98
2023-03-06T07:26:05.307Z,58.97
2023-03-06T07:29:13.192Z,59.71
2023-03-06T07:32:19.105Z,58.84
2023-03-06T07:35:28.595Z,58.72
2023-03-06T07:38:36.929Z,59.45
2023-03-06T07:41:43.699Z,59.91
2023-03-06T07:44:55.363Z,60.72
2023-03-06T07:48:01.609Z,60.67
2023-03-06T07:51:07.788Z,60.01
2023-03-06T07:54:21.248Z,59.97
2023-03-06T07:57:35.495Z,60.93
2023-03-06T08:31:41.947Z,63.53
2023-03-06T08:34:46.185Z,63.83
2023-03-06T08:37:48.960Z,61.83
2023-03-06T08:40:52.865Z,62.73
2023-03-06T08:43:55.842Z,63.00
2023-03-06T08:47:01.074Z,61.52
2023-03-06T08:50:10.325Z,61.81
2023-03-06T08:53:13.343Z,60.96
2023-03-06T08:56:29.201Z,60.15
2023-03-06T08:59:39.162Z,59.50
2023-03-06T09:10:29.828Z,60.48
2023-03-06T09:13:35.210Z,60.89
2023-03-06T09:16:58.184Z,61.30
2023-03-06T09:20:25.612Z,60.98
2023-03-06T09:23:37.651Z,60.63
2023-03-06T09:26:49.353Z,60.64
2023-03-06T09:30:05.836Z,61.09
2023-03-06T09:33:12.302Z,59.67
2023-03-06T09:36:20.950Z,60.46
2023-03-06T09:39:26.906Z,61.58
2023-03-06T09:42:36.214Z,61.21
2023-03-06T09:45:43.522Z,61.50
2023-03-06T09:49:18.222Z,60.43
2023-03-06T09:53:04.299Z,58.86
2023-03-06T09:56:19.987Z,57.83
2023-03-06T09:59:32.063Z,58.38
2023-03-06T10:02:53.283Z,57.44
2023-03-06T10:07:06.228Z,57.38
2023-03-06T10:10:47.709Z,58.45
2023-03-06T10:14:33.653Z,57.58
2023-03-06T10:17:55.036Z,56.44
2023-03-06T10:21:18.711Z,56.72
2023-03-06T10:24:52.352Z,56.57
2023-03-06T10:28:17.343Z,57.49
2023-03-06T10:31:27.402Z,57.51
2023-03-06T10:34:36.973Z,56.79
2023-03-06T10:37:42.301Z,57.88
2023-03-06T10:41:27.773Z,57.58
2023-03-06T10:44:32.453Z,57.84
2023-03-06T10:47:36.337Z,57.39
2023-03-06T10:50:39.600Z,57.04
2023-03-06T10:54:20.433Z,57.13
2023-03-06T10:57:32.285Z,56.60
2023-03-06T11:01:56.333Z,56.85
2023-03-06T11:10:44.283Z,56.42
2023-03-06T11:23:42.882Z,56.31
2023-03-06T11:27:12.130Z,56.41
2023-03-06T11:30:22.681Z,56.39
2023-03-06T11:33:46.874Z,56.05
2023-03-06T11:37:10.574Z,55.54
2023-03-06T11:40:43.444Z,55.76
2023-03-06T11:44:15.661Z,55.91
2023-03-06T11:47:37.844Z,55.16
2023-03-06T11:50:48.743Z,54.66
2023-03-06T11:53:53.800Z,54.12
2023-03-06T11:57:14.946Z,54.46
2023-03-06T12:00:58.263Z,55.42
2023-03-06T12:04:14.257Z,54.77
2023-03-06T12:07:49.613Z,55.00
2023-03-06T12:11:03.345Z,53.09
2023-03-06T12:18:38.987Z,54.03
2023-03-06T12:23:14.830Z,54.34
2023-03-06T12:26:41.851Z,52.36
2023-03-06T12:34:08.999Z,51.44
2023-03-06T12:37:12.070Z,51.97
2023-03-06T12:40:26.658Z,51.52
2023-03-06T12:44:20.329Z,51.06
2023-03-06T12:47:28.418Z,50.92
2023-03-06T12:50:38.367Z,50.83
2023-03-06T12:53:55.350Z,50.34
2023-03-06T12:56:59.524Z,51.04
2023-03-06T13:00:02.468Z,50.42
2023-03-06T13:03:35.351Z,51.21
2023-03-06T13:07:06.063Z,53.34
2023-03-06T13:10:20.566Z,54.52
2023-03-06T13:14:03.311Z,56.57
2023-03-06T13:17:36.158Z,57.14
2023-03-06T13:21:54.725Z,56.36
2023-03-06T13:25:26.184Z,56.59
2023-03-06T13:28:53.145Z,58.27
2023-03-06T13:32:04.621Z,58.75
2023-03-06T13:35:33.766Z,61.04
2023-03-06T13:38:40.946Z,60.56
2023-03-06T13:42:05.575Z,60.83
2023-03-06T13:45:24.173Z,60.79
2023-03-06T13:48:45.506Z,60.76
2023-03-06T13:51:54.805Z,61.09
2023-03-06T13:55:19.153Z,61.75
2023-03-06T13:59:07.051Z,62.02
2023-03-06T14:02:55.000Z,62.59
2023-03-06T14:05:59.433Z,62.16
2023-03-06T14:09:06.429Z,63.43
2023-03-06T14:12:27.772Z,63.17
2023-03-06T14:15:55.123Z,63.09
2023-03-06T14:19:03.929Z,62.73
2023-03-06T14:22:13.356Z,62.52
2023-03-06T14:25:18.958Z,63.86
2023-03-06T14:32:05.047Z,64.02
2023-03-06T14:35:19.101Z,63.85
2023-03-06T14:38:22.529Z,64.19
2023-03-06T14:41:28.370Z,64.59
2023-03-06T14:44:30.830Z,63.82
2023-03-06T14:47:37.897Z,64.39
2023-03-06T14:50:41.074Z,64.88
2023-03-06T14:53:45.823Z,65.66
2023-03-06T14:56:53.672Z,66.27
2023-03-06T15:00:00.395Z,65.77
2023-03-06T15:03:10.208Z,65.34
2023-03-06T15:06:32.020Z,64.78
2023-03-06T15:09:39.349Z,64.87
2023-03-06T15:12:41.994Z,65.57
2023-03-06T15:16:09.673Z,65.77
2023-03-06T15:19:42.889Z,66.03
2023-03-06T15:22:59.887Z,66.09
2023-03-06T15:26:28.727Z,65.79
2023-03-06T15:29:40.527Z,65.56
2023-03-06T15:32:44.146Z,65.55
2023-03-06T15:36:05.446Z,65.71
2023-03-06T15:39:45.971Z,66.32
2023-03-06T15:42:51.045Z,66.50
2023-03-06T15:46:00.250Z,65.30
2023-03-06T15:49:05.406Z,66.29
2023-03-06T15:52:10.377Z,66.62
2023-03-06T15:55:17.276Z,65.96
2023-03-06T15:58:30.895Z,66.31
2023-03-06T16:01:43.581Z,66.45
2023-03-06T16:04:47.069Z,66.61
2023-03-06T16:07:49.995Z,66.89
2023-03-06T16:10:52.894Z,67.30
2023-03-06T16:13:58.257Z,67.44
2023-03-06T16:17:03.860Z,67.53
2023-03-06T16:20:11.140Z,68.03
2023-03-06T16:23:15.528Z,68.43
2023-03-06T16:26:44.900Z,67.38
2023-03-06T16:29:51.618Z,68.36
2023-03-06T16:32:54.178Z,68.93
2023-03-06T16:35:56.619Z,69.00
2023-03-06T16:39:00.794Z,69.56
2023-03-06T16:42:03.442Z,69.78
2023-03-06T16:45:09.523Z,69.66
2023-03-06T16:48:16.001Z,69.80
2023-03-06T16:51:23.726Z,69.77
2023-03-06T16:54:26.618Z,68.73
2023-03-06T16:57:36.334Z,69.27
2023-03-06T17:00:39.940Z,69.11
2023-03-06T17:03:42.707Z,69.34
2023-03-06T17:06:46.056Z,69.12
2023-03-06T17:09:48.125Z,68.66
2023-03-06T17:12:50.580Z,69.05
2023-03-06T17:15:59.507Z,68.71
2023-03-06T17:19:02.758Z,69.74
2023-03-06T17:22:05.123Z,68.88
2023-03-06T17:25:10.600Z,69.23
2023-03-06T17:28:13.523Z,69.57
2023-03-06T17:31:21.504Z,68.97
2023-03-06T17:34:24.683Z,69.23
2023-03-06T17:37:26.862Z,69.37
2023-03-06T17:40:30.458Z,69.69
2023-03-06T17:43:33.238Z,69.95
2023-03-06T17:46:35.444Z,69.73
2023-03-06T17:49:42.865Z,69.21
2023-03-06T17:52:46.009Z,69.49
2023-03-06T17:55:51.550Z,69.52
2023-03-06T17:58:55.527Z,69.50
2023-03-06T18:01:59.039Z,69.35
2023-03-06T18:05:02.858Z,69.40
2023-03-06T18:08:08.650Z,69.32
2023-03-06T18:11:12.419Z,69.12
2023-03-06T18:14:15.568Z,69.39
2023-03-06T18:17:18.811Z,68.70
2023-03-06T18:20:21.550Z,69.36
2023-03-06T18:23:24.379Z,69.15
2023-03-06T18:26:29.507Z,69.42
2023-03-06T18:29:34.877Z,68.76
2023-03-06T18:32:37.147Z,68.90
2023-03-06T18:35:44.418Z,69.18
2023-03-06T18:38:48.149Z,69.28
2023-03-06T18:41:50.711Z,69.60
2023-03-06T18:44:54.805Z,69.80
2023-03-06T18:47:57.336Z,70.07
2023-03-06T18:51:08.223Z,69.83
2023-03-06T18:54:12.224Z,69.90
2023-03-06T18:57:14.940Z,70.01
2023-03-06T19:00:17.850Z,70.78
2023-03-06T19:03:21.037Z,70.68
2023-03-06T19:06:24.582Z,71.77
2023-03-06T19:09:28.122Z,71.73
2023-03-06T19:12:33.030Z,71.04
2023-03-06T19:15:48.521Z,71.82
2023-03-06T19:18:52.259Z,71.13
2023-03-06T19:21:57.091Z,70.10
2023-03-06T19:24:59.975Z,72.96
2023-03-06T19:28:03.350Z,70.22
2023-03-06T19:31:14.824Z,71.48
2023-03-06T19:34:17.192Z,71.95
2023-03-06T19:37:19.823Z,71.83
2023-03-06T19:40:24.239Z,70.55
2023-03-06T19:43:28.660Z,71.67
2023-03-06T19:46:33.042Z,71.82
2023-03-06T19:49:36.374Z,72.53
2023-03-06T19:52:39.249Z,71.71
2023-03-06T19:55:43.236Z,73.64
2023-03-06T19:58:45.286Z,72.36
2023-03-06T20:01:47.570Z,72.38
2023-03-06T20:04:50.419Z,73.34
2023-03-06T20:07:53.351Z,72.28
2023-03-06T20:10:56.121Z,71.47
2023-03-06T20:13:59.995Z,71.89
2023-03-06T20:17:02.511Z,71.83
2023-03-06T20:20:09.721Z,72.37
2023-03-06T20:23:12.606Z,74.07
2023-03-06T20:26:15.380Z,73.16
2023-03-06T20:29:18.995Z,72.17
2023-03-06T20:32:22.607Z,71.08
2023-03-06T20:35:26.679Z,71.55
2023-03-06T20:38:29.417Z,70.99
2023-03-06T20:41:32.802Z,71.13
2023-03-06T20:44:37.094Z,70.86
2023-03-06T20:47:39.688Z,71.05
2023-03-06T20:50:43.744Z,71.43
2023-03-06T20:53:48.148Z,70.63
2023-03-06T20:56:50.842Z,70.97
2023-03-06T20:59:55.911Z,70.92
2023-03-06T21:02:58.165Z,71.30
2023-03-06T21:06:00.533Z,70.72
2023-03-06T21:09:05.458Z,70.55
2023-03-06T21:12:07.848Z,70.65
2023-03-06T21:15:10.827Z,71.72
2023-03-06T21:18:13.334Z,72.59
2023-03-06T21:21:18.689Z,71.74
2023-03-06T21:24:21.437Z,72.67
2023-03-06T21:27:23.693Z,71.55
2023-03-06T21:30:29.769Z,70.44
2023-03-06T21:33:32.095Z,70.54
2023-03-06T21:36:34.524Z,70.79
2023-03-06T21:39:36.838Z,70.48
2023-03-06T21:42:39.163Z,70.53
2023-03-06T21:45:46.227Z,71.29
2023-03-06T21:48:48.889Z,72.70
2023-03-06T21:51:51.705Z,71.58
2023-03-06T21:54:53.703Z,71.25
2023-03-06T21:57:56.474Z,72.07
2023-03-06T22:00:58.835Z,71.82
2023-03-06T22:04:01.401Z,71.42
2023-03-06T22:07:03.727Z,71.53
2023-03-06T22:10:07.503Z,71.48
2023-03-06T22:13:09.875Z,71.31
2023-03-06T22:16:12.948Z,71.92
2023-03-06T22:19:15.836Z,72.16
2023-03-06T22:22:20.007Z,71.18
2023-03-06T22:25:22.135Z,71.30
2023-03-06T22:28:24.648Z,71.28
2023-03-06T22:31:29.237Z,71.54
2023-03-06T22:34:32.039Z,71.25
2023-03-06T22:37:34.316Z,71.43
2023-03-06T22:40:36.467Z,71.49
2023-03-06T22:43:39.062Z,71.75
2023-03-06T22:46:41.897Z,71.59
2023-03-06T22:49:44.356Z,71.67
2023-03-06T22:52:49.390Z,72.18
2023-03-06T22:55:51.722Z,72.38
2023-03-06T22:58:53.892Z,71.81
2023-03-06T23:01:57.077Z,72.39
2023-03-06T23:04:59.537Z,71.82
2023-03-06T23:08:01.659Z,72.11
2023-03-06T23:11:10.184Z,71.13
2023-03-06T23:14:12.859Z,71.29
2023-03-06T23:17:14.906Z,73.34
2023-03-06T23:20:17.770Z,73.47
2023-03-06T23:23:22.246Z,73.08
2023-03-06T23:26:27.880Z,72.84
2023-03-06T23:29:29.970Z,73.05
2023-03-06T23:32:33.808Z,73.34
2023-03-06T23:35:38.078Z,73.34
2023-03-06T23:38:44.392Z,73.26
2023-03-06T23:41:46.953Z,73.36
2023-03-06T23:44:49.237Z,73.07
2023-03-06T23:47:51.580Z,73.08
2023-03-06T23:50:54.145Z,73.50
2023-03-06T23:53:58.854Z,74.79
2023-03-06T23:57:01.149Z,74.28
